sensor_id;sensor_type;location;lat;lon;timestamp;temperature;humidity
21928;DHT22;11128;51.096;17.190;2023-03-14T00:01:37;8.40;1.00
21928;DHT22;11128;51.096;17.190;2023-03-14T00:06:38;8.30;1.00
21928;DHT22;11128;51.096;17.190;2023-03-14T00:11:40;8.20;29.00
21928;DHT22;11128;51.096;17.190;2023-03-14T00:16:41;8.10;99.90
21928;DHT22;11128;51.096;17.190;2023-03-14T00:21:42;8.10;99.90
21928;DHT22;11128;51.096;17.190;2023-03-14T00:26:43;8.00;1.00
21928;DHT22;11128;51.096;17.190;2023-03-14T00:31:45;7.90;1.00
21928;DHT22;11128;51.096;17.190;2023-03-14T00:36:46;7.90;91.60
21928;DHT22;11128;51.096;17.190;2023-03-14T00:41:47;7.80;99.90
21928;DHT22;11128;51.096;17.190;2023-03-14T00:46:49;7.80;99.90
21928;DHT22;11128;51.096;17.190;2023-03-14T00:51:50;7.80;99.90
21928;DHT22;11128;51.096;17.190;2023-03-14T00:56:52;7.80;99.90
21928;DHT22;11128;51.096;17.190;2023-03-14T01:01:53;7.80;1.00
21928;DHT22;11128;51.096;17.190;2023-03-14T01:06:55;7.80;1.00
21928;DHT22;11128;51.096;17.190;2023-03-14T01:11:56;7.80;1.00
21928;DHT22;11128;51.096;17.190;2023-03-14T01:16:57;7.80;1.00
21928;DHT22;11128;51.096;17.190;2023-03-14T01:22:01;7.80;75.10
21928;DHT22;11128;51.096;17.190;2023-03-14T01:27:03;7.80;1.00
21928;DHT22;11128;51.096;17.190;2023-03-14T01:32:04;7.90;99.90
21928;DHT22;11128;51.096;17.190;2023-03-14T01:37:05;8.00;1.00
21928;DHT22;11128;51.096;17.190;2023-03-14T01:42:09;8.10;1.00
21928;DHT22;11128;51.096;17.190;2023-03-14T01:47:10;8.10;1.00
21928;DHT22;11128;51.096;17.190;2023-03-14T01:52:15;8.10;1.00
21928;DHT22;11128;51.096;17.190;2023-03-14T01:57:39;8.10;1.00
21928;DHT22;11128;51.096;17.190;2023-03-14T02:02:51;8.00;99.90
21928;DHT22;11128;51.096;17.190;2023-03-14T02:07:55;8.10;99.90
21928;DHT22;11128;51.096;17.190;2023-03-14T02:13:00;8.20;1.00
21928;DHT22;11128;51.096;17.190;2023-03-14T02:18:03;8.20;1.00
21928;DHT22;11128;51.096;17.190;2023-03-14T02:23:05;8.20;99.90
21928;DHT22;11128;51.096;17.190;2023-03-14T02:28:06;8.30;1.00
21928;DHT22;11128;51.096;17.190;2023-03-14T02:33:13;8.40;1.00
21928;DHT22;11128;51.096;17.190;2023-03-14T02:43:39;8.70;1.00
21928;DHT22;11128;51.096;17.190;2023-03-14T02:48:51;8.90;1.00
21928;DHT22;11128;51.096;17.190;2023-03-14T02:53:53;9.00;1.00
21928;DHT22;11128;51.096;17.190;2023-03-14T02:58:54;9.10;99.90
21928;DHT22;11128;51.096;17.190;2023-03-14T03:03:56;9.20;99.90
21928;DHT22;11128;51.096;17.190;2023-03-14T03:08:57;9.50;1.00
21928;DHT22;11128;51.096;17.190;2023-03-14T03:13:58;10.00;1.00
21928;DHT22;11128;51.096;17.190;2023-03-14T03:19:00;10.40;99.90
21928;DHT22;11128;51.096;17.190;2023-03-14T03:24:01;10.40;99.90
21928;DHT22;11128;51.096;17.190;2023-03-14T03:29:03;10.60;99.90
21928;DHT22;11128;51.096;17.190;2023-03-14T03:34:04;10.80;99.90
21928;DHT22;11128;51.096;17.190;2023-03-14T03:39:05;11.00;99.90
21928;DHT22;11128;51.096;17.190;2023-03-14T03:44:07;11.00;99.90
21928;DHT22;11128;51.096;17.190;2023-03-14T03:49:08;10.90;99.90
21928;DHT22;11128;51.096;17.190;2023-03-14T03:54:09;10.90;99.90
21928;DHT22;11128;51.096;17.190;2023-03-14T03:59:11;11.00;99.90
21928;DHT22;11128;51.096;17.190;2023-03-14T04:04:13;11.00;99.90
21928;DHT22;11128;51.096;17.190;2023-03-14T04:09:14;11.10;99.90
21928;DHT22;11128;51.096;17.190;2023-03-14T04:14:16;10.70;99.90
21928;DHT22;11128;51.096;17.190;2023-03-14T04:19:18;10.70;99.90
21928;DHT22;11128;51.096;17.190;2023-03-14T04:24:19;10.70;99.90
21928;DHT22;11128;51.096;17.190;2023-03-14T04:29:20;10.50;1.00
21928;DHT22;11128;51.096;17.190;2023-03-14T04:34:21;10.30;1.00
21928;DHT22;11128;51.096;17.190;2023-03-14T04:39:23;10.30;1.00
21928;DHT22;11128;51.096;17.190;2023-03-14T04:44:24;10.30;1.00
21928;DHT22;11128;51.096;17.190;2023-03-14T04:49:25;10.50;1.00
21928;DHT22;11128;51.096;17.190;2023-03-14T04:54:26;10.50;1.00
21928;DHT22;11128;51.096;17.190;2023-03-14T04:59:28;10.50;99.90
21928;DHT22;11128;51.096;17.190;2023-03-14T05:04:29;10.70;99.90
21928;DHT22;11128;51.096;17.190;2023-03-14T05:09:33;10.70;99.90
21928;DHT22;11128;51.096;17.190;2023-03-14T05:14:35;10.60;99.90
21928;DHT22;11128;51.096;17.190;2023-03-14T05:19:36;10.50;1.00
21928;DHT22;11128;51.096;17.190;2023-03-14T05:24:37;10.50;1.00
21928;DHT22;11128;51.096;17.190;2023-03-14T05:29:39;10.40;1.00
21928;DHT22;11128;51.096;17.190;2023-03-14T05:34:40;10.20;1.00
21928;DHT22;11128;51.096;17.190;2023-03-14T05:39:41;10.10;99.90
21928;DHT22;11128;51.096;17.190;2023-03-14T05:44:43;9.90;99.90
21928;DHT22;11128;51.096;17.190;2023-03-14T05:49:44;9.80;1.00
21928;DHT22;11128;51.096;17.190;2023-03-14T05:54:46;9.90;99.90
21928;DHT22;11128;51.096;17.190;2023-03-14T05:59:47;9.90;99.90
21928;DHT22;11128;51.096;17.190;2023-03-14T06:04:48;9.90;99.90
21928;DHT22;11128;51.096;17.190;2023-03-14T06:09:50;9.90;99.90
21928;DHT22;11128;51.096;17.190;2023-03-14T06:14:51;9.90;99.90
21928;DHT22;11128;51.096;17.190;2023-03-14T06:19:52;9.90;64.40
21928;DHT22;11128;51.096;17.190;2023-03-14T06:24:53;10.20;1.00
21928;DHT22;11128;51.096;17.190;2023-03-14T06:29:56;10.10;1.00
21928;DHT22;11128;51.096;17.190;2023-03-14T06:34:57;10.20;1.00
21928;DHT22;11128;51.096;17.190;2023-03-14T06:40:02;10.30;1.00
21928;DHT22;11128;51.096;17.190;2023-03-14T06:45:03;10.30;1.00
21928;DHT22;11128;51.096;17.190;2023-03-14T06:50:06;10.30;1.00
21928;DHT22;11128;51.096;17.190;2023-03-14T06:55:08;10.30;1.00
21928;DHT22;11128;51.096;17.190;2023-03-14T07:00:12;10.30;1.00
21928;DHT22;11128;51.096;17.190;2023-03-14T07:05:15;10.30;1.00
21928;DHT22;11128;51.096;17.190;2023-03-14T07:10:17;10.40;1.00
21928;DHT22;11128;51.096;17.190;2023-03-14T07:15:18;10.40;1.00
21928;DHT22;11128;51.096;17.190;2023-03-14T07:20:23;10.40;1.00
21928;DHT22;11128;51.096;17.190;2023-03-14T07:25:24;10.40;1.00
21928;DHT22;11128;51.096;17.190;2023-03-14T07:30:26;10.50;1.00
21928;DHT22;11128;51.096;17.190;2023-03-14T07:35:27;10.40;1.00
21928;DHT22;11128;51.096;17.190;2023-03-14T07:40:29;10.50;1.00
21928;DHT22;11128;51.096;17.190;2023-03-14T07:45:30;10.50;1.00
21928;DHT22;11128;51.096;17.190;2023-03-14T07:50:32;10.40;1.00
21928;DHT22;11128;51.096;17.190;2023-03-14T07:55:33;10.30;1.00
21928;DHT22;11128;51.096;17.190;2023-03-14T08:00:35;10.30;1.00
21928;DHT22;11128;51.096;17.190;2023-03-14T08:05:37;10.20;1.00
21928;DHT22;11128;51.096;17.190;2023-03-14T08:10:38;10.20;1.00
21928;DHT22;11128;51.096;17.190;2023-03-14T08:15:40;10.20;1.00
21928;DHT22;11128;51.096;17.190;2023-03-14T08:20:42;10.10;1.00
21928;DHT22;11128;51.096;17.190;2023-03-14T08:25:43;10.00;1.00
21928;DHT22;11128;51.096;17.190;2023-03-14T08:30:45;10.00;99.90
21928;DHT22;11128;51.096;17.190;2023-03-14T08:35:46;9.90;99.90
21928;DHT22;11128;51.096;17.190;2023-03-14T08:40:48;9.80;19.40
21928;DHT22;11128;51.096;17.190;2023-03-14T08:45:51;9.60;1.00
21928;DHT22;11128;51.096;17.190;2023-03-14T08:50:52;9.50;1.00
21928;DHT22;11128;51.096;17.190;2023-03-14T08:55:54;9.30;99.90
21928;DHT22;11128;51.096;17.190;2023-03-14T09:00:55;9.30;99.90
21928;DHT22;11128;51.096;17.190;2023-03-14T09:06:04;9.30;1.00
21928;DHT22;11128;51.096;17.190;2023-03-14T09:11:08;9.30;99.90
21928;DHT22;11128;51.096;17.190;2023-03-14T09:16:09;9.40;1.00
21928;DHT22;11128;51.096;17.190;2023-03-14T09:21:11;9.50;1.00
21928;DHT22;11128;51.096;17.190;2023-03-14T09:26:13;9.60;1.00
21928;DHT22;11128;51.096;17.190;2023-03-14T09:31:14;9.60;1.00
21928;DHT22;11128;51.096;17.190;2023-03-14T09:36:16;9.70;99.90
21928;DHT22;11128;51.096;17.190;2023-03-14T09:41:29;9.80;99.90
21928;DHT22;11128;51.096;17.190;2023-03-14T09:46:33;9.90;99.90
21928;DHT22;11128;51.096;17.190;2023-03-14T09:51:36;9.90;1.00
21928;DHT22;11128;51.096;17.190;2023-03-14T09:56:38;10.00;1.00
21928;DHT22;11128;51.096;17.190;2023-03-14T10:01:39;10.10;1.00
21928;DHT22;11128;51.096;17.190;2023-03-14T10:06:41;10.10;1.00
21928;DHT22;11128;51.096;17.190;2023-03-14T10:11:43;10.10;1.00
21928;DHT22;11128;51.096;17.190;2023-03-14T10:16:46;10.10;99.90
21928;DHT22;11128;51.096;17.190;2023-03-14T10:21:52;10.00;1.00
21928;DHT22;11128;51.096;17.190;2023-03-14T10:26:58;10.00;99.90
21928;DHT22;11128;51.096;17.190;2023-03-14T10:32:06;10.10;99.90
21928;DHT22;11128;51.096;17.190;2023-03-14T10:37:22;10.30;1.00
21928;DHT22;11128;51.096;17.190;2023-03-14T10:42:39;10.50;1.00
21928;DHT22;11128;51.096;17.190;2023-03-14T10:47:49;10.60;1.00
21928;DHT22;11128;51.096;17.190;2023-03-14T10:52:52;10.80;1.00
21928;DHT22;11128;51.096;17.190;2023-03-14T10:57:53;10.90;1.00
21928;DHT22;11128;51.096;17.190;2023-03-14T11:08:16;11.10;1.00
21928;DHT22;11128;51.096;17.190;2023-03-14T11:13:34;11.30;94.30
21928;DHT22;11128;51.096;17.190;2023-03-14T11:34:41;12.00;1.00
21928;DHT22;11128;51.096;17.190;2023-03-14T11:39:51;12.30;1.00
21928;DHT22;11128;51.096;17.190;2023-03-14T11:44:57;12.40;99.90
21928;DHT22;11128;51.096;17.190;2023-03-14T11:50:18;12.50;99.90
21928;DHT22;11128;51.096;17.190;2023-03-14T11:55:31;12.70;1.00
21928;DHT22;11128;51.096;17.190;2023-03-14T12:00:32;12.80;99.90
21928;DHT22;11128;51.096;17.190;2023-03-14T12:06:00;12.90;1.00
21928;DHT22;11128;51.096;17.190;2023-03-14T12:21:47;12.50;1.00
21928;DHT22;11128;51.096;17.190;2023-03-14T12:26:58;12.30;1.00
21928;DHT22;11128;51.096;17.190;2023-03-14T13:03:46;11.90;99.90
21928;DHT22;11128;51.096;17.190;2023-03-14T13:08:48;11.90;99.90
21928;DHT22;11128;51.096;17.190;2023-03-14T13:13:57;11.90;99.90
21928;DHT22;11128;51.096;17.190;2023-03-14T13:19:03;11.90;99.90
21928;DHT22;11128;51.096;17.190;2023-03-14T13:24:26;12.00;99.90
21928;DHT22;11128;51.096;17.190;2023-03-14T13:29:29;12.00;99.90
21928;DHT22;11128;51.096;17.190;2023-03-14T13:34:33;12.00;99.90
21928;DHT22;11128;51.096;17.190;2023-03-14T13:39:39;12.00;99.90
21928;DHT22;11128;51.096;17.190;2023-03-14T13:44:41;12.00;99.90
21928;DHT22;11128;51.096;17.190;2023-03-14T13:49:43;12.00;99.90
21928;DHT22;11128;51.096;17.190;2023-03-14T13:54:45;12.00;99.90
21928;DHT22;11128;51.096;17.190;2023-03-14T14:00:03;11.90;1.00
21928;DHT22;11128;51.096;17.190;2023-03-14T14:05:10;11.90;1.00
21928;DHT22;11128;51.096;17.190;2023-03-14T14:10:13;11.90;99.90
21928;DHT22;11128;51.096;17.190;2023-03-14T14:15:22;11.90;1.00
21928;DHT22;11128;51.096;17.190;2023-03-14T14:25:35;11.90;99.90
21928;DHT22;11128;51.096;17.190;2023-03-14T14:30:37;11.90;99.90
21928;DHT22;11128;51.096;17.190;2023-03-14T14:35:38;11.90;99.90
21928;DHT22;11128;51.096;17.190;2023-03-14T14:40:45;11.90;99.90
21928;DHT22;11128;51.096;17.190;2023-03-14T14:45:49;11.90;99.90
21928;DHT22;11128;51.096;17.190;2023-03-14T14:55:58;12.00;99.90
21928;DHT22;11128;51.096;17.190;2023-03-14T15:01:19;12.00;99.90
21928;DHT22;11128;51.096;17.190;2023-03-14T15:06:27;12.00;99.90
21928;DHT22;11128;51.096;17.190;2023-03-14T15:11:29;12.00;99.90
21928;DHT22;11128;51.096;17.190;2023-03-14T15:16:31;12.00;99.90
21928;DHT22;11128;51.096;17.190;2023-03-14T15:21:33;12.50;1.00
21928;DHT22;11128;51.096;17.190;2023-03-14T15:26:34;13.40;1.00
21928;DHT22;11128;51.096;17.190;2023-03-14T15:31:35;13.80;1.00
21928;DHT22;11128;51.096;17.190;2023-03-14T15:36:37;13.80;99.90
21928;DHT22;11128;51.096;17.190;2023-03-14T15:41:39;13.30;1.00
21928;DHT22;11128;51.096;17.190;2023-03-14T15:46:42;12.80;1.00
21928;DHT22;11128;51.096;17.190;2023-03-14T15:51:43;12.90;1.00
21928;DHT22;11128;51.096;17.190;2023-03-14T15:56:44;13.00;1.00
21928;DHT22;11128;51.096;17.190;2023-03-14T16:01:46;13.10;1.00
21928;DHT22;11128;51.096;17.190;2023-03-14T16:06:49;12.80;1.00
21928;DHT22;11128;51.096;17.190;2023-03-14T16:11:50;12.60;1.00
21928;DHT22;11128;51.096;17.190;2023-03-14T16:16:52;12.50;54.10
21928;DHT22;11128;51.096;17.190;2023-03-14T16:21:54;12.30;99.90
21928;DHT22;11128;51.096;17.190;2023-03-14T16:26:55;12.20;99.90
21928;DHT22;11128;51.096;17.190;2023-03-14T16:31:56;12.00;99.90
21928;DHT22;11128;51.096;17.190;2023-03-14T16:36:58;11.90;99.90
21928;DHT22;11128;51.096;17.190;2023-03-14T16:41:59;11.90;99.90
21928;DHT22;11128;51.096;17.190;2023-03-14T16:47:01;11.90;99.90
21928;DHT22;11128;51.096;17.190;2023-03-14T16:52:03;11.70;99.90
21928;DHT22;11128;51.096;17.190;2023-03-14T16:57:04;11.70;1.00
21928;DHT22;11128;51.096;17.190;2023-03-14T17:02:06;11.60;1.00
21928;DHT22;11128;51.096;17.190;2023-03-14T17:07:07;11.50;1.00
21928;DHT22;11128;51.096;17.190;2023-03-14T17:12:09;11.30;1.00
21928;DHT22;11128;51.096;17.190;2023-03-14T17:17:10;11.30;1.00
21928;DHT22;11128;51.096;17.190;2023-03-14T17:22:11;11.20;1.00
21928;DHT22;11128;51.096;17.190;2023-03-14T17:27:13;11.10;1.00
21928;DHT22;11128;51.096;17.190;2023-03-14T17:32:20;11.00;1.00
21928;DHT22;11128;51.096;17.190;2023-03-14T17:37:21;10.90;1.00
21928;DHT22;11128;51.096;17.190;2023-03-14T17:42:23;10.90;1.00
21928;DHT22;11128;51.096;17.190;2023-03-14T17:47:24;10.80;1.00
21928;DHT22;11128;51.096;17.190;2023-03-14T17:52:26;10.80;1.00
21928;DHT22;11128;51.096;17.190;2023-03-14T17:57:28;10.70;1.00
21928;DHT22;11128;51.096;17.190;2023-03-14T18:02:29;10.50;1.00
21928;DHT22;11128;51.096;17.190;2023-03-14T18:07:34;10.50;1.00
21928;DHT22;11128;51.096;17.190;2023-03-14T18:12:38;10.60;1.00
21928;DHT22;11128;51.096;17.190;2023-03-14T18:17:40;10.60;1.00
21928;DHT22;11128;51.096;17.190;2023-03-14T18:22:41;10.50;1.00
21928;DHT22;11128;51.096;17.190;2023-03-14T18:27:43;10.40;1.00
21928;DHT22;11128;51.096;17.190;2023-03-14T18:32:44;10.40;98.20
21928;DHT22;11128;51.096;17.190;2023-03-14T18:37:46;10.40;99.90
21928;DHT22;11128;51.096;17.190;2023-03-14T18:42:47;10.40;99.90
21928;DHT22;11128;51.096;17.190;2023-03-14T18:47:49;10.40;99.90
21928;DHT22;11128;51.096;17.190;2023-03-14T18:52:50;10.30;99.90
21928;DHT22;11128;51.096;17.190;2023-03-14T18:57:51;10.30;1.00
21928;DHT22;11128;51.096;17.190;2023-03-14T19:02:53;10.20;1.00
21928;DHT22;11128;51.096;17.190;2023-03-14T19:07:54;10.10;1.00
21928;DHT22;11128;51.096;17.190;2023-03-14T19:12:58;10.20;1.00
21928;DHT22;11128;51.096;17.190;2023-03-14T19:17:59;10.00;1.00
21928;DHT22;11128;51.096;17.190;2023-03-14T19:23:01;10.00;1.00
21928;DHT22;11128;51.096;17.190;2023-03-14T19:28:02;10.10;1.00
21928;DHT22;11128;51.096;17.190;2023-03-14T19:33:05;10.10;1.00
21928;DHT22;11128;51.096;17.190;2023-03-14T19:38:07;10.00;99.90
21928;DHT22;11128;51.096;17.190;2023-03-14T19:43:09;10.10;99.90
21928;DHT22;11128;51.096;17.190;2023-03-14T19:48:11;10.20;23.90
21928;DHT22;11128;51.096;17.190;2023-03-14T19:53:13;10.20;15.30
21928;DHT22;11128;51.096;17.190;2023-03-14T19:58:14;10.20;99.90
21928;DHT22;11128;51.096;17.190;2023-03-14T20:03:17;10.10;1.00
21928;DHT22;11128;51.096;17.190;2023-03-14T20:08:21;9.90;1.00
21928;DHT22;11128;51.096;17.190;2023-03-14T20:13:23;9.00;1.00
21928;DHT22;11128;51.096;17.190;2023-03-14T20:18:25;8.40;99.90
21928;DHT22;11128;51.096;17.190;2023-03-14T20:23:26;8.00;99.90
21928;DHT22;11128;51.096;17.190;2023-03-14T20:28:28;7.70;1.00
21928;DHT22;11128;51.096;17.190;2023-03-14T20:33:29;7.50;99.90
21928;DHT22;11128;51.096;17.190;2023-03-14T20:38:34;7.30;1.00
21928;DHT22;11128;51.096;17.190;2023-03-14T20:43:36;6.80;1.00
21928;DHT22;11128;51.096;17.190;2023-03-14T20:48:38;6.30;99.90
21928;DHT22;11128;51.096;17.190;2023-03-14T20:53:40;5.80;99.90
21928;DHT22;11128;51.096;17.190;2023-03-14T20:58:41;5.40;99.90
21928;DHT22;11128;51.096;17.190;2023-03-14T21:03:45;6.50;99.90
21928;DHT22;11128;51.096;17.190;2023-03-14T21:08:47;4.90;1.00
21928;DHT22;11128;51.096;17.190;2023-03-14T21:13:48;4.90;1.00
21928;DHT22;11128;51.096;17.190;2023-03-14T21:18:49;6.00;36.50
21928;DHT22;11128;51.096;17.190;2023-03-14T21:23:50;4.50;1.00
21928;DHT22;11128;51.096;17.190;2023-03-14T21:28:54;4.30;1.00
21928;DHT22;11128;51.096;17.190;2023-03-14T21:33:55;4.30;1.00
21928;DHT22;11128;51.096;17.190;2023-03-14T21:38:56;4.10;99.90
21928;DHT22;11128;51.096;17.190;2023-03-14T21:43:58;4.10;99.90
21928;DHT22;11128;51.096;17.190;2023-03-14T21:48:59;4.10;99.90
21928;DHT22;11128;51.096;17.190;2023-03-14T21:54:00;4.10;99.90
21928;DHT22;11128;51.096;17.190;2023-03-14T21:59:01;4.10;1.00
21928;DHT22;11128;51.096;17.190;2023-03-14T22:04:03;4.10;99.90
21928;DHT22;11128;51.096;17.190;2023-03-14T22:09:05;3.90;99.90
21928;DHT22;11128;51.096;17.190;2023-03-14T22:14:06;4.40;1.00
21928;DHT22;11128;51.096;17.190;2023-03-14T22:19:07;3.80;99.90
21928;DHT22;11128;51.096;17.190;2023-03-14T22:24:08;3.80;1.00
21928;DHT22;11128;51.096;17.190;2023-03-14T22:29:10;3.70;1.00
21928;DHT22;11128;51.096;17.190;2023-03-14T22:34:12;3.70;1.00
21928;DHT22;11128;51.096;17.190;2023-03-14T22:39:13;3.70;1.00
21928;DHT22;11128;51.096;17.190;2023-03-14T22:44:14;3.70;99.90
21928;DHT22;11128;51.096;17.190;2023-03-14T22:54:17;3.70;1.00
21928;DHT22;11128;51.096;17.190;2023-03-14T22:59:18;3.70;57.70
21928;DHT22;11128;51.096;17.190;2023-03-14T23:04:20;3.70;1.00
21928;DHT22;11128;51.096;17.190;2023-03-14T23:09:21;3.60;1.00
21928;DHT22;11128;51.096;17.190;2023-03-14T23:14:22;3.60;1.00
21928;DHT22;11128;51.096;17.190;2023-03-14T23:19:24;3.60;99.90
21928;DHT22;11128;51.096;17.190;2023-03-14T23:24:27;3.50;1.00
21928;DHT22;11128;51.096;17.190;2023-03-14T23:29:29;3.50;99.90
21928;DHT22;11128;51.096;17.190;2023-03-14T23:34:30;3.40;99.90
21928;DHT22;11128;51.096;17.190;2023-03-14T23:39:31;3.30;56.50
21928;DHT22;11128;51.096;17.190;2023-03-14T23:44:32;3.30;1.00
21928;DHT22;11128;51.096;17.190;2023-03-14T23:49:33;3.20;1.00
21928;DHT22;11128;51.096;17.190;2023-03-14T23:54:35;3.20;99.90
